KRH35 EGVN-EGPH
Flight info
| Callsign | KRH35 |
|---|---|
| Flight time | 0h 45m |
| Altitude | 36000 |
| Route | DTY UY53 SAPCO UN57 POL UN601 RIBEL DCT INPIP |
| Aircraft | A332/H-SDE3GHIJ2J3J5M1RVWXY/LB2D1 |
Departure
| Time | 2026-04-20 21:29 |
|---|---|
| Airport | RAF Brize Norton (EGVN) |
Arrival
| Time | 2026-04-20 22:14 |
|---|---|
| Airport | Edinburgh Airport (EGPH) |
| Time | Latitude | Longitude | Altitude | Speed | Heading |
|---|---|---|---|---|---|
| 2026-04-20 21:21 | 51.74420 | -1.59420 | 268 ft | 0 kts | 309° |
| 2026-04-20 21:23 | 51.74421 | -1.59421 | 268 ft | 1 kts | 309° |
| 2026-04-20 21:23 | 51.74424 | -1.59427 | 268 ft | 0 kts | 309° |
| 2026-04-20 21:24 | 51.74425 | -1.59428 | 268 ft | 0 kts | 310° |
| 2026-04-20 21:24 | 51.74441 | -1.59449 | 268 ft | 5 kts | 319° |
| 2026-04-20 21:24 | 51.74458 | -1.59497 | 268 ft | 9 kts | 281° |
| 2026-04-20 21:25 | 51.74442 | -1.59633 | 268 ft | 13 kts | 252° |
| 2026-04-20 21:25 | 51.74427 | -1.59782 | 268 ft | 14 kts | 273° |
| 2026-04-20 21:25 | 51.74481 | -1.59992 | 268 ft | 25 kts | 294° |
| 2026-04-20 21:25 | 51.74510 | -1.60269 | 268 ft | 22 kts | 307° |
| 2026-04-20 21:26 | 51.74571 | -1.60352 | 268 ft | 10 kts | 339° |
| 2026-04-20 21:26 | 51.74628 | -1.60314 | 269 ft | 4 kts | 73° |
| 2026-04-20 21:26 | 51.74631 | -1.60298 | 269 ft | 0 kts | 73° |
| 2026-04-20 21:26 | 51.74632 | -1.60291 | 269 ft | 5 kts | 73° |
| 2026-04-20 21:27 | 51.74687 | -1.59990 | 266 ft | 28 kts | 73° |
| 2026-04-20 21:27 | 51.74699 | -1.59928 | 266 ft | 0 kts | 73° |
| 2026-04-20 21:28 | 51.74710 | -1.59867 | 266 ft | 24 kts | 73° |
| 2026-04-20 21:28 | 51.74816 | -1.59294 | 268 ft | 83 kts | 73° |
| 2026-04-20 21:28 | 51.75036 | -1.58102 | 268 ft | 135 kts | 73° |
| 2026-04-20 21:29 | 51.75362 | -1.56427 | 391 ft | 172 kts | 71° |
| 2026-04-20 21:29 | 51.75728 | -1.54516 | 998 ft | 182 kts | 73° |
| 2026-04-20 21:29 | 51.76229 | -1.52534 | 1495 ft | 207 kts | 60° |
| 2026-04-20 21:29 | 51.77188 | -1.50659 | 1960 ft | 228 kts | 40° |
| 2026-04-20 21:30 | 51.78682 | -1.49635 | 2614 ft | 241 kts | 16° |
| 2026-04-20 21:30 | 51.80378 | -1.49338 | 3360 ft | 249 kts | 3° |
| 2026-04-20 21:30 | 51.82109 | -1.49480 | 4219 ft | 250 kts | 357° |
| 2026-04-20 21:30 | 51.83840 | -1.49821 | 5061 ft | 252 kts | 354° |
| 2026-04-20 21:31 | 51.85590 | -1.50216 | 5884 ft | 255 kts | 354° |
| 2026-04-20 21:31 | 51.87356 | -1.50592 | 6728 ft | 257 kts | 355° |
| 2026-04-20 21:31 | 51.89143 | -1.50927 | 7542 ft | 260 kts | 355° |
| 2026-04-20 21:31 | 51.90960 | -1.51222 | 8317 ft | 265 kts | 356° |
| 2026-04-20 21:32 | 51.92804 | -1.51490 | 9128 ft | 268 kts | 356° |
| 2026-04-20 21:32 | 51.94675 | -1.51744 | 9911 ft | 272 kts | 356° |
| 2026-04-20 21:32 | 51.96581 | -1.51995 | 10593 ft | 280 kts | 356° |
| 2026-04-20 21:32 | 51.98587 | -1.52257 | 10890 ft | 299 kts | 356° |
| 2026-04-20 21:33 | 52.00731 | -1.52538 | 11162 ft | 319 kts | 356° |
| 2026-04-20 21:33 | 52.02992 | -1.52838 | 11614 ft | 331 kts | 355° |
| 2026-04-20 21:33 | 52.05306 | -1.53150 | 12251 ft | 337 kts | 355° |
| 2026-04-20 21:33 | 52.07652 | -1.53468 | 12989 ft | 339 kts | 355° |
| 2026-04-20 21:34 | 52.10012 | -1.53789 | 13720 ft | 343 kts | 355° |
| 2026-04-20 21:34 | 52.12412 | -1.54115 | 14365 ft | 348 kts | 354° |
| 2026-04-20 21:34 | 52.14837 | -1.54445 | 15010 ft | 351 kts | 354° |
| 2026-04-20 21:34 | 52.17280 | -1.54777 | 15646 ft | 354 kts | 354° |
| 2026-04-20 21:35 | 52.19752 | -1.55113 | 16290 ft | 358 kts | 354° |
| 2026-04-20 21:35 | 52.22240 | -1.55452 | 16933 ft | 361 kts | 354° |
| 2026-04-20 21:35 | 52.24752 | -1.55795 | 17573 ft | 364 kts | 353° |
| 2026-04-20 21:35 | 52.27283 | -1.56141 | 18200 ft | 367 kts | 353° |
| 2026-04-20 21:36 | 52.29844 | -1.56491 | 18751 ft | 372 kts | 354° |
| 2026-04-20 21:36 | 52.32432 | -1.56846 | 19297 ft | 375 kts | 354° |
| 2026-04-20 21:36 | 52.35036 | -1.57202 | 19874 ft | 376 kts | 353° |
| 2026-04-20 21:36 | 52.37648 | -1.57560 | 20439 ft | 378 kts | 353° |
| 2026-04-20 21:37 | 52.40280 | -1.57921 | 20987 ft | 380 kts | 353° |
| 2026-04-20 21:37 | 52.42922 | -1.58284 | 21521 ft | 382 kts | 353° |
| 2026-04-20 21:37 | 52.45542 | -1.58645 | 22046 ft | 384 kts | 352° |
| 2026-04-20 21:37 | 52.48246 | -1.59017 | 22575 ft | 386 kts | 352° |
| 2026-04-20 21:38 | 52.50896 | -1.59384 | 23081 ft | 388 kts | 352° |
| 2026-04-20 21:38 | 52.53637 | -1.59764 | 23510 ft | 393 kts | 353° |
| 2026-04-20 21:38 | 52.56338 | -1.60139 | 23927 ft | 397 kts | 353° |
| 2026-04-20 21:38 | 52.59099 | -1.60521 | 24278 ft | 399 kts | 353° |
| 2026-04-20 21:39 | 52.61868 | -1.60904 | 24683 ft | 400 kts | 352° |
| 2026-04-20 21:39 | 52.64655 | -1.61290 | 25082 ft | 402 kts | 352° |
| 2026-04-20 21:39 | 52.67455 | -1.61678 | 25457 ft | 405 kts | 352° |
| 2026-04-20 21:39 | 52.70270 | -1.62069 | 25853 ft | 407 kts | 352° |
| 2026-04-20 21:40 | 52.73096 | -1.62462 | 26240 ft | 409 kts | 352° |
| 2026-04-20 21:40 | 52.75939 | -1.62859 | 26701 ft | 411 kts | 352° |
| 2026-04-20 21:40 | 52.78801 | -1.63261 | 27009 ft | 415 kts | 352° |
| 2026-04-20 21:40 | 52.81694 | -1.63666 | 27370 ft | 418 kts | 352° |
| 2026-04-20 21:41 | 52.84600 | -1.64073 | 27756 ft | 420 kts | 352° |
| 2026-04-20 21:41 | 52.87480 | -1.64476 | 28127 ft | 422 kts | 352° |
| 2026-04-20 21:41 | 52.90411 | -1.64887 | 28500 ft | 424 kts | 352° |
| 2026-04-20 21:41 | 52.93361 | -1.65301 | 28855 ft | 426 kts | 351° |
| 2026-04-20 21:42 | 52.96326 | -1.65719 | 29219 ft | 428 kts | 351° |
| 2026-04-20 21:42 | 52.99302 | -1.66139 | 29581 ft | 431 kts | 351° |
| 2026-04-20 21:42 | 53.02303 | -1.66569 | 29872 ft | 434 kts | 351° |
| 2026-04-20 21:42 | 53.05287 | -1.67388 | 30163 ft | 435 kts | 343° |
| 2026-04-20 21:43 | 53.08186 | -1.68818 | 30509 ft | 435 kts | 339° |
| 2026-04-20 21:43 | 53.11053 | -1.70445 | 30782 ft | 437 kts | 338° |
| 2026-04-20 21:43 | 53.13909 | -1.72196 | 31027 ft | 439 kts | 336° |
| 2026-04-20 21:43 | 53.16767 | -1.74049 | 31281 ft | 442 kts | 336° |
| 2026-04-20 21:44 | 53.19634 | -1.75922 | 31539 ft | 444 kts | 336° |
| 2026-04-20 21:44 | 53.22525 | -1.77808 | 31791 ft | 447 kts | 336° |
| 2026-04-20 21:44 | 53.25436 | -1.79705 | 32025 ft | 450 kts | 336° |
| 2026-04-20 21:44 | 53.28371 | -1.81618 | 32185 ft | 455 kts | 337° |
| 2026-04-20 21:45 | 53.31323 | -1.83542 | 32512 ft | 455 kts | 337° |
| 2026-04-20 21:45 | 53.34229 | -1.85437 | 32889 ft | 454 kts | 337° |
| 2026-04-20 21:45 | 53.37176 | -1.87361 | 33225 ft | 454 kts | 337° |
| 2026-04-20 21:45 | 53.40116 | -1.89283 | 33544 ft | 454 kts | 337° |
| 2026-04-20 21:46 | 53.43068 | -1.91216 | 33855 ft | 455 kts | 337° |
| 2026-04-20 21:46 | 53.46017 | -1.93150 | 34161 ft | 456 kts | 337° |
| 2026-04-20 21:46 | 53.48972 | -1.95092 | 34472 ft | 456 kts | 337° |
| 2026-04-20 21:46 | 53.51925 | -1.97034 | 34733 ft | 456 kts | 337° |
| 2026-04-20 21:47 | 53.54879 | -1.98980 | 35003 ft | 456 kts | 337° |
| 2026-04-20 21:47 | 53.57833 | -2.00929 | 35269 ft | 456 kts | 337° |
| 2026-04-20 21:47 | 53.60786 | -2.02881 | 35524 ft | 455 kts | 337° |
| 2026-04-20 21:47 | 53.63738 | -2.04834 | 35770 ft | 456 kts | 337° |
| 2026-04-20 21:48 | 53.66693 | -2.06793 | 36014 ft | 456 kts | 337° |
| 2026-04-20 21:48 | 53.69643 | -2.08751 | 36243 ft | 456 kts | 337° |
| 2026-04-20 21:48 | 53.72606 | -2.10720 | 36376 ft | 457 kts | 337° |
| 2026-04-20 21:49 | 53.78476 | -2.14632 | 36368 ft | 456 kts | 337° |
| 2026-04-20 21:49 | 53.84375 | -2.18574 | 36402 ft | 454 kts | 337° |
| 2026-04-20 21:49 | 53.87273 | -2.20514 | 36386 ft | 442 kts | 337° |
| 2026-04-20 21:50 | 53.90114 | -2.22419 | 36378 ft | 437 kts | 337° |
| 2026-04-20 21:50 | 53.95782 | -2.26231 | 36381 ft | 439 kts | 337° |
| 2026-04-20 21:51 | 54.01452 | -2.30055 | 36378 ft | 439 kts | 337° |
| 2026-04-20 21:51 | 54.07138 | -2.33901 | 36382 ft | 440 kts | 338° |
| 2026-04-20 21:52 | 54.12830 | -2.37761 | 36386 ft | 445 kts | 337° |
| 2026-04-20 21:52 | 54.18702 | -2.41758 | 36382 ft | 462 kts | 337° |
| 2026-04-20 21:53 | 54.24752 | -2.45888 | 36393 ft | 478 kts | 338° |
| 2026-04-20 21:53 | 54.30987 | -2.50155 | 36392 ft | 482 kts | 337° |
| 2026-04-20 21:54 | 54.37206 | -2.54426 | 36395 ft | 481 kts | 338° |
| 2026-04-20 21:54 | 54.43425 | -2.58712 | 36385 ft | 481 kts | 338° |
| 2026-04-20 21:55 | 54.49596 | -2.62978 | 35759 ft | 471 kts | 338° |
| 2026-04-20 21:55 | 54.52649 | -2.65093 | 34635 ft | 478 kts | 337° |
| 2026-04-20 21:55 | 54.55760 | -2.67253 | 33516 ft | 486 kts | 337° |
| 2026-04-20 21:55 | 54.58898 | -2.69435 | 32758 ft | 486 kts | 337° |
| 2026-04-20 21:56 | 54.62041 | -2.71623 | 32117 ft | 486 kts | 337° |
| 2026-04-20 21:56 | 54.65171 | -2.73807 | 31494 ft | 485 kts | 337° |
| 2026-04-20 21:56 | 54.68293 | -2.75989 | 30886 ft | 483 kts | 337° |
| 2026-04-20 21:56 | 54.71380 | -2.78150 | 30162 ft | 483 kts | 337° |
| 2026-04-20 21:57 | 54.74496 | -2.80336 | 29294 ft | 481 kts | 337° |
| 2026-04-20 21:57 | 54.77581 | -2.82503 | 28572 ft | 476 kts | 338° |
| 2026-04-20 21:57 | 54.80630 | -2.84666 | 27923 ft | 472 kts | 337° |
| 2026-04-20 21:57 | 54.83658 | -2.86832 | 27280 ft | 468 kts | 338° |
| 2026-04-20 21:58 | 54.86655 | -2.88982 | 26660 ft | 463 kts | 338° |
| 2026-04-20 21:58 | 54.89618 | -2.91111 | 26041 ft | 459 kts | 338° |
| 2026-04-20 21:58 | 54.92556 | -2.93224 | 25439 ft | 455 kts | 338° |
| 2026-04-20 21:58 | 54.95467 | -2.95321 | 24737 ft | 451 kts | 338° |
| 2026-04-20 21:59 | 54.98351 | -2.97402 | 24070 ft | 446 kts | 339° |
| 2026-04-20 21:59 | 55.01214 | -2.99470 | 23292 ft | 445 kts | 339° |
| 2026-04-20 21:59 | 55.04064 | -3.01531 | 22567 ft | 442 kts | 339° |
| 2026-04-20 21:59 | 55.06892 | -3.03582 | 21885 ft | 437 kts | 339° |
| 2026-04-20 22:00 | 55.09642 | -3.05583 | 21227 ft | 427 kts | 339° |
| 2026-04-20 22:00 | 55.12318 | -3.07536 | 20573 ft | 406 kts | 339° |
| 2026-04-20 22:00 | 55.14855 | -3.09391 | 19974 ft | 386 kts | 339° |
| 2026-04-20 22:00 | 55.17309 | -3.11186 | 19359 ft | 380 kts | 339° |
| 2026-04-20 22:01 | 55.19726 | -3.12955 | 18749 ft | 370 kts | 339° |
| 2026-04-20 22:01 | 55.22081 | -3.14681 | 18080 ft | 366 kts | 339° |
| 2026-04-20 22:01 | 55.24432 | -3.16404 | 17391 ft | 367 kts | 339° |
| 2026-04-20 22:01 | 55.26787 | -3.18132 | 16715 ft | 367 kts | 339° |
| 2026-04-20 22:02 | 55.29119 | -3.19882 | 16063 ft | 360 kts | 338° |
| 2026-04-20 22:02 | 55.31323 | -3.21794 | 15427 ft | 346 kts | 335° |
| 2026-04-20 22:02 | 55.33411 | -3.23718 | 14807 ft | 333 kts | 334° |
| 2026-04-20 22:02 | 55.35423 | -3.25589 | 14196 ft | 322 kts | 334° |
| 2026-04-20 22:03 | 55.37373 | -3.27407 | 13525 ft | 313 kts | 334° |
| 2026-04-20 22:03 | 55.39275 | -3.29184 | 12847 ft | 306 kts | 334° |
| 2026-04-20 22:03 | 55.41143 | -3.30929 | 12186 ft | 303 kts | 334° |
| 2026-04-20 22:03 | 55.43007 | -3.32667 | 11557 ft | 304 kts | 334° |
| 2026-04-20 22:04 | 55.44895 | -3.34409 | 10919 ft | 309 kts | 334° |
| 2026-04-20 22:04 | 55.46811 | -3.36166 | 10291 ft | 313 kts | 334° |
| 2026-04-20 22:04 | 55.48732 | -3.37924 | 9654 ft | 306 kts | 334° |
| 2026-04-20 22:04 | 55.50558 | -3.39600 | 9450 ft | 289 kts | 334° |
| 2026-04-20 22:05 | 55.52342 | -3.41241 | 9421 ft | 289 kts | 334° |
| 2026-04-20 22:05 | 55.54133 | -3.42890 | 9124 ft | 292 kts | 334° |
| 2026-04-20 22:05 | 55.55956 | -3.44566 | 8471 ft | 298 kts | 334° |
| 2026-04-20 22:05 | 55.57793 | -3.46255 | 7819 ft | 295 kts | 334° |
| 2026-04-20 22:06 | 55.59571 | -3.47894 | 7252 ft | 289 kts | 334° |
| 2026-04-20 22:06 | 55.61358 | -3.49544 | 6629 ft | 283 kts | 334° |
| 2026-04-20 22:06 | 55.63061 | -3.51126 | 6152 ft | 275 kts | 334° |
| 2026-04-20 22:06 | 55.64731 | -3.52689 | 5980 ft | 271 kts | 334° |
| 2026-04-20 22:07 | 55.66404 | -3.54255 | 5968 ft | 272 kts | 334° |
| 2026-04-20 22:07 | 55.68076 | -3.55822 | 5969 ft | 272 kts | 334° |
| 2026-04-20 22:07 | 55.69749 | -3.57394 | 5970 ft | 272 kts | 334° |
| 2026-04-20 22:07 | 55.71421 | -3.58966 | 5647 ft | 272 kts | 334° |
| 2026-04-20 22:08 | 55.73066 | -3.60521 | 5468 ft | 263 kts | 334° |
| 2026-04-20 22:08 | 55.74640 | -3.62035 | 5331 ft | 252 kts | 334° |
| 2026-04-20 22:08 | 55.76162 | -3.63522 | 5096 ft | 248 kts | 334° |
| 2026-04-20 22:08 | 55.77667 | -3.65001 | 4721 ft | 248 kts | 334° |
| 2026-04-20 22:09 | 55.79212 | -3.66522 | 4172 ft | 259 kts | 334° |
| 2026-04-20 22:09 | 55.80837 | -3.67974 | 3876 ft | 263 kts | 345° |
| 2026-04-20 22:09 | 55.82620 | -3.68222 | 3418 ft | 255 kts | 17° |
| 2026-04-20 22:09 | 55.84168 | -3.66939 | 3265 ft | 238 kts | 38° |
| 2026-04-20 22:10 | 55.85381 | -3.65071 | 3185 ft | 223 kts | 49° |
| 2026-04-20 22:10 | 55.86275 | -3.62942 | 3076 ft | 207 kts | 60° |
| 2026-04-20 22:10 | 55.86983 | -3.60811 | 2999 ft | 192 kts | 61° |
| 2026-04-20 22:10 | 55.87653 | -3.58833 | 2891 ft | 182 kts | 60° |
| 2026-04-20 22:11 | 55.88307 | -3.56942 | 2635 ft | 177 kts | 61° |
| 2026-04-20 22:11 | 55.88937 | -3.55096 | 2368 ft | 171 kts | 61° |
| 2026-04-20 22:11 | 55.89341 | -3.53905 | 2202 ft | 167 kts | 62° |
| 2026-04-20 22:11 | 55.90124 | -3.51601 | 1890 ft | 158 kts | 61° |
| 2026-04-20 22:12 | 55.90497 | -3.50506 | 1742 ft | 153 kts | 61° |
| 2026-04-20 22:12 | 55.91184 | -3.48483 | 1488 ft | 134 kts | 61° |
| 2026-04-20 22:12 | 55.91645 | -3.47124 | 1290 ft | 123 kts | 60° |
| 2026-04-20 22:12 | 55.92083 | -3.45835 | 1118 ft | 120 kts | 60° |
| 2026-04-20 22:13 | 55.92515 | -3.44561 | 945 ft | 120 kts | 60° |
| 2026-04-20 22:13 | 55.92808 | -3.43697 | 825 ft | 121 kts | 59° |
| 2026-04-20 22:13 | 55.93241 | -3.42422 | 660 ft | 120 kts | 61° |
| 2026-04-20 22:13 | 55.93668 | -3.41163 | 479 ft | 119 kts | 61° |
| 2026-04-20 22:14 | 55.94096 | -3.39902 | 323 ft | 118 kts | 60° |
| 2026-04-20 22:14 | 55.94518 | -3.38661 | 155 ft | 115 kts | 60° |
| 2026-04-20 22:14 | 55.94899 | -3.37544 | 113 ft | 83 kts | 59° |
| 2026-04-20 22:14 | 55.95095 | -3.36967 | 114 ft | 30 kts | 58° |
| 2026-04-20 22:15 | 55.95201 | -3.36652 | 114 ft | 29 kts | 59° |
| 2026-04-20 22:15 | 55.95248 | -3.36447 | 113 ft | 9 kts | 101° |
| 2026-04-20 22:15 | 55.95216 | -3.36380 | 113 ft | 6 kts | 139° |
| 2026-04-20 22:15 | 55.95191 | -3.36350 | 116 ft | 4 kts | 145° |
| 2026-04-20 22:16 | 55.95162 | -3.36302 | 115 ft | 12 kts | 128° |
| 2026-04-20 22:16 | 55.95118 | -3.36135 | 118 ft | 15 kts | 107° |
| 2026-04-20 22:16 | 55.95078 | -3.35943 | 117 ft | 18 kts | 115° |
| 2026-04-20 22:16 | 55.95010 | -3.35850 | 116 ft | 12 kts | 182° |
| 2026-04-20 22:17 | 55.94945 | -3.35853 | 118 ft | 4 kts | 190° |
| 2026-04-20 22:17 | 55.94919 | -3.35879 | 116 ft | 6 kts | 210° |
| 2026-04-20 22:17 | 55.94876 | -3.35924 | 117 ft | 5 kts | 209° |
| 2026-04-20 22:17 | 55.94864 | -3.35936 | 116 ft | 0 kts | 209° |